createdAt,value
2024-04-22T00:01:21.645Z,6.90
2024-04-22T00:03:48.518Z,6.90
2024-04-22T00:06:15.408Z,6.80
2024-04-22T00:08:42.198Z,6.80
2024-04-22T00:11:09.201Z,6.80
2024-04-22T00:13:36.917Z,6.70
2024-04-22T00:16:04.060Z,6.70
2024-04-22T00:18:30.909Z,6.60
2024-04-22T00:20:57.712Z,6.60
2024-04-22T00:23:24.541Z,6.60
2024-04-22T00:25:51.359Z,6.60
2024-04-22T00:28:18.241Z,6.60
2024-04-22T00:30:45.077Z,6.60
2024-04-22T00:33:12.135Z,6.60
2024-04-22T00:35:39.775Z,6.50
2024-04-22T00:38:07.207Z,6.50
2024-04-22T00:40:34.314Z,6.50
2024-04-22T00:43:01.252Z,6.50
2024-04-22T00:45:28.114Z,6.50
2024-04-22T00:47:54.996Z,6.50
2024-04-22T00:50:21.919Z,6.50
2024-04-22T00:52:48.786Z,6.50
2024-04-22T00:55:15.741Z,6.50
2024-04-22T00:57:43.354Z,6.50
2024-04-22T01:00:10.281Z,6.50
2024-04-22T01:02:37.242Z,6.50
2024-04-22T01:05:04.355Z,6.50
2024-04-22T01:07:31.463Z,6.50
2024-04-22T01:09:58.335Z,6.50
2024-04-22T01:12:25.133Z,6.50
2024-04-22T01:14:52.012Z,6.50
2024-04-22T01:17:18.926Z,6.40
2024-04-22T01:19:45.764Z,6.50
2024-04-22T01:22:13.748Z,6.50
2024-04-22T01:24:40.982Z,6.50
2024-04-22T01:27:08.153Z,6.50
2024-04-22T01:29:34.973Z,6.50
2024-04-22T01:32:02.216Z,6.50
2024-04-22T01:34:29.140Z,6.50
2024-04-22T01:36:55.968Z,6.50
2024-04-22T01:39:22.771Z,6.50
2024-04-22T01:41:49.578Z,6.40
2024-04-22T01:44:16.383Z,6.40
2024-04-22T01:46:43.326Z,6.40
2024-04-22T01:49:10.401Z,6.40
2024-04-22T01:51:37.221Z,6.40
2024-04-22T01:54:04.071Z,6.30
2024-04-22T01:56:31.487Z,6.30
2024-04-22T01:58:59.394Z,6.30
2024-04-22T02:01:26.356Z,6.30
2024-04-22T02:03:53.303Z,6.30
2024-04-22T02:06:20.121Z,6.30
2024-04-22T02:08:46.966Z,6.30
2024-04-22T02:11:13.933Z,6.30
2024-04-22T02:13:40.840Z,6.20
2024-04-22T02:16:07.825Z,6.20
2024-04-22T02:18:34.704Z,6.20
2024-04-22T02:21:01.560Z,6.20
2024-04-22T02:23:28.427Z,6.20
2024-04-22T02:25:55.383Z,6.20
2024-04-22T02:28:22.277Z,6.20
2024-04-22T02:30:49.104Z,6.20
2024-04-22T02:33:16.236Z,6.20
2024-04-22T02:35:43.322Z,6.20
2024-04-22T02:38:10.188Z,6.20
2024-04-22T02:40:38.020Z,6.20
2024-04-22T02:43:05.928Z,6.20
2024-04-22T02:45:32.802Z,6.20
2024-04-22T02:47:59.588Z,6.20
2024-04-22T02:50:26.405Z,6.20
2024-04-22T02:52:53.267Z,6.20
2024-04-22T02:55:20.197Z,6.20
2024-04-22T02:57:47.020Z,6.20
2024-04-22T03:00:14.204Z,6.20
2024-04-22T03:02:41.094Z,6.20
2024-04-22T03:05:07.929Z,6.20
2024-04-22T03:07:34.768Z,6.20
2024-04-22T03:10:01.568Z,6.20
2024-04-22T03:12:28.405Z,6.20
2024-04-22T03:14:55.192Z,6.20
2024-04-22T03:17:22.047Z,6.20
2024-04-22T03:19:50.431Z,6.20
2024-04-22T03:22:17.294Z,6.20
2024-04-22T03:24:44.475Z,6.20
2024-04-22T03:27:11.310Z,6.20
2024-04-22T03:29:38.142Z,6.20
2024-04-22T03:32:05.350Z,6.20
2024-04-22T03:34:32.377Z,6.20
2024-04-22T03:36:59.276Z,6.20
2024-04-22T03:39:26.168Z,6.20
2024-04-22T03:41:52.986Z,6.30
2024-04-22T03:44:19.854Z,6.20
2024-04-22T03:47:05.520Z,6.20
2024-04-22T03:49:50.932Z,6.30
2024-04-22T03:52:17.853Z,6.20
2024-04-22T03:54:44.736Z,6.20
2024-04-22T03:57:11.604Z,6.20
2024-04-22T03:59:39.554Z,6.20
2024-04-22T04:02:06.750Z,6.20
2024-04-22T04:04:33.686Z,6.20
2024-04-22T04:07:00.630Z,6.20
2024-04-22T04:09:27.463Z,6.20
2024-04-22T04:11:54.302Z,6.20
2024-04-22T04:14:21.173Z,6.20
2024-04-22T04:16:48.110Z,6.20
2024-04-22T04:19:15.069Z,6.20
2024-04-22T04:21:42.473Z,6.20
2024-04-22T04:24:09.575Z,6.30
2024-04-22T04:26:36.420Z,6.20
2024-04-22T04:29:03.331Z,6.20
2024-04-22T04:31:30.269Z,6.20
2024-04-22T04:33:57.157Z,6.10
2024-04-22T04:36:23.960Z,6.10
2024-04-22T04:38:50.786Z,6.10
2024-04-22T04:41:18.049Z,6.00
2024-04-22T04:43:44.896Z,6.10
2024-04-22T04:46:11.740Z,6.10
2024-04-22T04:48:38.666Z,6.00
2024-04-22T04:51:05.577Z,6.00
2024-04-22T04:53:32.498Z,6.00
2024-04-22T04:55:59.301Z,6.00
2024-04-22T04:58:26.179Z,6.00
2024-04-22T05:00:53.221Z,6.00
2024-04-22T05:03:20.544Z,6.10
2024-04-22T05:05:56.419Z,6.10
2024-04-22T05:08:23.227Z,6.10
2024-04-22T05:10:50.183Z,6.10
2024-04-22T05:13:17.109Z,6.10
2024-04-22T05:15:43.923Z,6.10
2024-04-22T05:18:10.765Z,6.10
2024-04-22T05:20:37.621Z,6.10
2024-04-22T05:23:04.572Z,6.20
2024-04-22T05:25:31.579Z,6.20
2024-04-22T05:27:58.431Z,6.20
2024-04-22T05:30:25.315Z,6.30
2024-04-22T05:32:52.354Z,6.20
2024-04-22T05:35:38.054Z,6.30
2024-04-22T05:38:04.885Z,6.30
2024-04-22T05:40:31.840Z,6.30
2024-04-22T05:42:59.164Z,6.40
2024-04-22T05:45:26.131Z,6.40
2024-04-22T05:47:53.061Z,6.50
2024-04-22T05:50:20.001Z,6.60
2024-04-22T05:52:46.840Z,6.70
2024-04-22T05:55:13.744Z,6.70
2024-04-22T05:57:41.957Z,6.80
2024-04-22T06:00:09.037Z,6.80
2024-04-22T06:02:36.063Z,6.90
2024-04-22T06:05:03.440Z,6.90
2024-04-22T06:07:30.440Z,7.00
2024-04-22T06:09:57.296Z,7.00
2024-04-22T06:12:24.156Z,7.10
2024-04-22T06:14:51.013Z,7.10
2024-04-22T06:17:17.903Z,7.10
2024-04-22T06:19:44.804Z,7.20
2024-04-22T06:22:11.794Z,7.20
2024-04-22T06:24:38.802Z,7.20
2024-04-22T06:27:05.656Z,7.20
2024-04-22T06:29:32.492Z,7.20
2024-04-22T06:32:00.609Z,7.30
2024-04-22T06:34:27.546Z,7.40
2024-04-22T06:36:54.402Z,7.40
2024-04-22T06:39:22.204Z,7.50
2024-04-22T06:41:49.083Z,7.60
2024-04-22T06:44:15.879Z,7.60
2024-04-22T06:46:42.800Z,7.70
2024-04-22T06:49:09.669Z,7.80
2024-04-22T06:51:36.508Z,7.90
2024-04-22T06:54:03.344Z,7.90
2024-04-22T06:56:30.189Z,8.00
2024-04-22T06:58:57.112Z,8.10
2024-04-22T07:01:31.446Z,8.10
2024-04-22T07:04:05.994Z,8.20
2024-04-22T07:06:33.210Z,8.30
2024-04-22T07:09:00.170Z,8.40
2024-04-22T07:11:27.092Z,8.50
2024-04-22T07:13:54.047Z,8.70
2024-04-22T07:16:21.580Z,8.80
2024-04-22T07:18:51.119Z,8.90
2024-04-22T07:21:19.728Z,9.00
2024-04-22T07:23:46.555Z,9.00
2024-04-22T07:26:13.608Z,9.10
2024-04-22T07:28:40.596Z,9.20
2024-04-22T07:31:07.679Z,9.30
2024-04-22T07:33:34.962Z,9.30
2024-04-22T07:36:16.873Z,9.40
2024-04-22T07:38:44.101Z,9.50
2024-04-22T07:41:11.222Z,9.60
2024-04-22T07:43:38.134Z,9.60
2024-04-22T07:46:05.055Z,9.70
2024-04-22T07:48:31.891Z,9.80
2024-04-22T07:50:58.713Z,9.90
2024-04-22T07:53:25.652Z,9.90
2024-04-22T07:55:52.643Z,9.90
2024-04-22T07:58:19.760Z,9.90
2024-04-22T08:00:46.834Z,9.90
2024-04-22T08:03:13.824Z,10.00
2024-04-22T08:05:40.722Z,10.20
2024-04-22T08:08:10.304Z,10.30
2024-04-22T08:10:37.259Z,10.40
2024-04-22T08:13:04.172Z,10.50
2024-04-22T08:15:31.090Z,10.40
2024-04-22T08:17:57.997Z,10.40
2024-04-22T08:20:24.816Z,10.50
2024-04-22T08:22:51.693Z,10.50
2024-04-22T08:25:18.561Z,10.50
2024-04-22T08:27:45.466Z,10.60
2024-04-22T08:30:12.412Z,10.50
2024-04-22T08:32:39.354Z,10.50
2024-04-22T08:35:06.473Z,10.50
2024-04-22T08:37:33.455Z,10.50
2024-04-22T08:40:00.493Z,10.60
2024-04-22T08:42:27.347Z,10.60
2024-04-22T08:44:54.375Z,10.70
2024-04-22T08:47:21.628Z,10.70
2024-04-22T08:49:48.743Z,10.70
2024-04-22T08:52:16.058Z,10.70
2024-04-22T08:54:42.981Z,10.70
2024-04-22T08:57:09.841Z,10.70
2024-04-22T08:59:40.501Z,10.70
2024-04-22T09:02:08.742Z,10.70
2024-04-22T09:04:35.885Z,10.80
2024-04-22T09:07:04.346Z,10.90
2024-04-22T09:09:42.372Z,11.00
2024-04-22T09:12:19.714Z,11.10
2024-04-22T09:14:46.853Z,11.20
2024-04-22T09:17:20.099Z,11.20
2024-04-22T09:19:47.994Z,11.10
2024-04-22T09:22:16.546Z,11.00
2024-04-22T09:24:46.426Z,11.00
2024-04-22T09:27:13.453Z,10.90
2024-04-22T09:29:44.631Z,11.00
2024-04-22T09:32:13.729Z,10.90
2024-04-22T09:34:41.337Z,11.00
2024-04-22T09:37:08.746Z,11.00
2024-04-22T09:39:37.054Z,11.00
2024-04-22T09:42:04.523Z,10.90
2024-04-22T09:44:31.921Z,11.00
2024-04-22T09:46:59.835Z,11.00
2024-04-22T09:49:30.157Z,11.00
2024-04-22T09:51:58.273Z,11.00
2024-04-22T09:54:25.381Z,11.00
2024-04-22T09:56:52.876Z,11.00
2024-04-22T09:59:20.602Z,11.00
2024-04-22T10:01:47.784Z,11.00
2024-04-22T10:04:15.169Z,11.00
2024-04-22T10:06:42.539Z,11.10
2024-04-22T10:09:15.920Z,11.10
2024-04-22T10:11:43.559Z,11.30
2024-04-22T10:14:15.942Z,11.30
2024-04-22T10:17:00.265Z,11.40
2024-04-22T10:19:31.134Z,11.50
2024-04-22T10:22:05.427Z,11.50
2024-04-22T10:24:36.954Z,11.50
2024-04-22T10:27:11.546Z,11.50
2024-04-22T10:29:41.380Z,11.50
2024-04-22T10:32:08.330Z,11.40
2024-04-22T10:34:39.810Z,11.40
2024-04-22T10:37:07.274Z,11.30
2024-04-22T10:39:34.285Z,11.30
2024-04-22T10:42:01.388Z,11.30
2024-04-22T10:44:28.404Z,11.40
2024-04-22T10:46:56.317Z,11.50
2024-04-22T10:49:27.459Z,11.60
2024-04-22T10:51:54.346Z,11.70
2024-04-22T10:54:21.161Z,11.70
2024-04-22T10:56:48.014Z,11.60
2024-04-22T10:59:14.827Z,11.40
2024-04-22T11:01:44.520Z,11.30
2024-04-22T11:04:12.340Z,11.10
2024-04-22T11:06:41.324Z,10.80
2024-04-22T11:09:08.523Z,10.50
2024-04-22T11:11:37.538Z,10.20
2024-04-22T11:14:05.090Z,10.00
2024-04-22T11:16:31.925Z,9.80
2024-04-22T11:19:07.036Z,9.70
2024-04-22T11:21:35.695Z,9.70
2024-04-22T11:24:03.048Z,9.70
2024-04-22T11:26:30.804Z,9.70
2024-04-22T11:28:59.458Z,9.80
2024-04-22T11:31:26.884Z,9.90
2024-04-22T11:33:55.472Z,10.10
2024-04-22T11:36:24.137Z,10.30
2024-04-22T11:38:52.669Z,10.40
2024-04-22T11:41:21.725Z,10.50
2024-04-22T11:43:48.717Z,10.70
2024-04-22T11:46:15.912Z,10.90
2024-04-22T11:48:42.825Z,11.20
2024-04-22T11:51:09.740Z,11.50
2024-04-22T11:53:36.632Z,11.80
2024-04-22T11:56:06.220Z,12.10
2024-04-22T11:58:35.131Z,12.20
2024-04-22T12:01:02.066Z,12.30
2024-04-22T12:03:29.020Z,12.30
2024-04-22T12:05:56.124Z,12.10
2024-04-22T12:08:22.989Z,12.00
2024-04-22T12:10:50.011Z,11.90
2024-04-22T12:13:16.950Z,11.90
2024-04-22T12:15:43.904Z,11.90
2024-04-22T12:18:10.857Z,11.90
2024-04-22T12:20:37.950Z,11.80
2024-04-22T12:23:05.040Z,11.70
2024-04-22T12:25:31.952Z,11.50
2024-04-22T12:28:05.843Z,11.30
2024-04-22T12:30:40.684Z,11.10
2024-04-22T12:33:07.793Z,11.10
2024-04-22T12:35:39.260Z,11.00
2024-04-22T12:38:07.096Z,11.00
2024-04-22T12:40:35.085Z,11.10
2024-04-22T12:43:03.464Z,11.10
2024-04-22T12:45:30.800Z,11.20
2024-04-22T12:48:16.572Z,11.30
2024-04-22T12:50:44.192Z,11.40
2024-04-22T12:53:11.485Z,11.50
2024-04-22T12:55:38.500Z,11.50
2024-04-22T12:58:05.840Z,11.50
2024-04-22T13:00:33.321Z,11.50
2024-04-22T13:03:00.538Z,11.60
2024-04-22T13:05:27.408Z,11.60
2024-04-22T13:07:55.083Z,11.80
2024-04-22T13:10:22.413Z,12.00
2024-04-22T13:12:49.719Z,12.10
2024-04-22T13:15:16.632Z,12.00
2024-04-22T13:17:43.734Z,11.90
2024-04-22T13:20:10.687Z,11.80
2024-04-22T13:22:37.667Z,11.80
2024-04-22T13:25:07.163Z,11.70
2024-04-22T13:27:35.429Z,11.60
2024-04-22T13:30:05.324Z,11.70
2024-04-22T13:32:32.553Z,11.80
2024-04-22T13:34:59.862Z,11.90
2024-04-22T13:37:26.732Z,12.10
2024-04-22T13:39:53.558Z,12.40
2024-04-22T13:42:21.065Z,12.60
2024-04-22T13:44:47.945Z,12.90
2024-04-22T13:47:14.879Z,13.10
2024-04-22T13:49:41.804Z,13.20
2024-04-22T13:52:08.808Z,13.10
2024-04-22T13:54:35.699Z,12.90
2024-04-22T13:57:02.581Z,12.50
2024-04-22T13:59:29.423Z,12.10
2024-04-22T14:01:56.387Z,11.80
2024-04-22T14:04:23.776Z,11.40
2024-04-22T14:06:50.686Z,11.10
2024-04-22T14:09:17.508Z,10.80
2024-04-22T14:11:44.479Z,10.50
2024-04-22T14:14:11.369Z,10.30
2024-04-22T14:16:38.273Z,10.20
2024-04-22T14:19:05.569Z,10.10
2024-04-22T14:21:32.468Z,10.10
2024-04-22T14:23:59.277Z,10.10
2024-04-22T14:26:26.088Z,10.10
2024-04-22T14:28:52.983Z,10.10
2024-04-22T14:31:20.596Z,10.20
2024-04-22T14:33:47.722Z,10.20
2024-04-22T14:36:14.655Z,10.30
2024-04-22T14:38:41.462Z,10.30
2024-04-22T14:41:08.241Z,10.30
2024-04-22T14:43:35.197Z,10.40
2024-04-22T14:46:03.697Z,10.40
2024-04-22T14:48:30.696Z,10.50
2024-04-22T14:50:58.025Z,10.50
2024-04-22T14:53:24.964Z,10.60
2024-04-22T14:55:51.832Z,10.60
2024-04-22T14:58:18.766Z,10.60
2024-04-22T15:00:45.630Z,10.80
2024-04-22T15:03:14.648Z,10.80
2024-04-22T15:05:41.663Z,10.80
2024-04-22T15:08:08.556Z,10.90
2024-04-22T15:10:46.966Z,10.90
2024-04-22T15:13:13.878Z,10.90
2024-04-22T15:15:40.706Z,11.00
2024-04-22T15:18:07.768Z,11.10
2024-04-22T15:20:34.708Z,11.30
2024-04-22T15:23:01.562Z,11.40
2024-04-22T15:25:30.787Z,11.40
2024-04-22T15:27:57.639Z,11.30
2024-04-22T15:30:24.493Z,11.20
2024-04-22T15:32:51.453Z,11.10
2024-04-22T15:35:18.455Z,11.00
2024-04-22T15:37:45.334Z,11.00
2024-04-22T15:40:12.237Z,11.00
2024-04-22T15:42:39.125Z,10.90
2024-04-22T15:45:06.112Z,10.90
2024-04-22T15:47:32.945Z,10.90
2024-04-22T15:50:00.283Z,10.90
2024-04-22T15:52:27.124Z,10.90
2024-04-22T15:54:54.354Z,11.00
2024-04-22T15:57:21.548Z,11.00
2024-04-22T15:59:55.339Z,11.10
2024-04-22T16:02:29.009Z,11.20
2024-04-22T16:04:55.926Z,11.30
2024-04-22T16:07:23.036Z,11.50
2024-04-22T16:09:50.320Z,11.60
2024-04-22T16:12:17.179Z,11.90
2024-04-22T16:14:44.008Z,12.20
2024-04-22T16:17:13.188Z,12.40
2024-04-22T16:19:40.085Z,12.60
2024-04-22T16:22:07.244Z,12.60
2024-04-22T16:24:34.095Z,12.50
2024-04-22T16:27:00.891Z,12.40
2024-04-22T16:29:27.829Z,12.30
2024-04-22T16:31:55.063Z,12.20
2024-04-22T16:34:22.063Z,12.10
2024-04-22T16:36:48.919Z,12.00
2024-04-22T16:39:15.747Z,11.70
2024-04-22T16:41:42.555Z,11.40
2024-04-22T16:44:09.405Z,11.20
2024-04-22T16:46:36.289Z,11.10
2024-04-22T16:49:03.313Z,10.90
2024-04-22T16:51:30.138Z,10.80
2024-04-22T16:53:56.970Z,10.70
2024-04-22T16:56:25.620Z,10.60
2024-04-22T16:58:52.613Z,10.50
2024-04-22T17:01:19.818Z,10.40
2024-04-22T17:03:46.905Z,10.50
2024-04-22T17:06:13.773Z,10.60
2024-04-22T17:08:40.637Z,10.80
2024-04-22T17:11:07.570Z,10.90
2024-04-22T17:13:34.594Z,11.00
2024-04-22T17:16:01.426Z,10.90
2024-04-22T17:18:28.491Z,10.80
2024-04-22T17:20:55.984Z,10.80
2024-04-22T17:23:23.453Z,10.80
2024-04-22T17:25:50.531Z,10.80
2024-04-22T17:28:18.425Z,10.90
2024-04-22T17:30:49.268Z,10.90
2024-04-22T17:33:16.384Z,10.90
2024-04-22T17:35:43.617Z,10.90
2024-04-22T17:38:10.686Z,11.00
2024-04-22T17:40:37.730Z,11.00
2024-04-22T17:43:04.672Z,11.00
2024-04-22T17:45:31.487Z,11.00
2024-04-22T17:47:58.360Z,11.00
2024-04-22T17:50:25.213Z,10.90
2024-04-22T17:52:52.259Z,10.90
2024-04-22T17:55:19.174Z,10.70
2024-04-22T17:57:45.964Z,10.60
2024-04-22T18:00:16.663Z,10.50
2024-04-22T18:02:44.174Z,10.40
2024-04-22T18:05:12.586Z,10.40
2024-04-22T18:07:39.485Z,10.30
2024-04-22T18:10:06.511Z,10.30
2024-04-22T18:12:33.314Z,10.30
2024-04-22T18:15:00.195Z,10.30
2024-04-22T18:17:27.121Z,10.20
2024-04-22T18:19:54.002Z,10.20
2024-04-22T18:22:22.066Z,10.10
2024-04-22T18:24:49.424Z,10.00
2024-04-22T18:27:16.315Z,10.00
2024-04-22T18:29:43.170Z,9.90
2024-04-22T18:32:10.114Z,9.80
2024-04-22T18:34:38.255Z,9.70
2024-04-22T18:37:05.286Z,9.50
2024-04-22T18:39:32.166Z,9.50
2024-04-22T18:41:58.992Z,9.40
2024-04-22T18:44:25.864Z,9.30
2024-04-22T18:46:52.891Z,9.20
2024-04-22T18:49:19.838Z,9.10
2024-04-22T18:51:46.861Z,9.00
2024-04-22T18:54:13.753Z,9.00
2024-04-22T18:56:40.591Z,8.90
2024-04-22T18:59:08.462Z,8.80
2024-04-22T19:01:35.367Z,8.80
2024-04-22T19:04:02.291Z,8.70
2024-04-22T19:06:29.141Z,8.60
2024-04-22T19:08:55.986Z,8.60
2024-04-22T19:11:22.811Z,8.50
2024-04-22T19:13:49.990Z,8.50
2024-04-22T19:16:16.937Z,8.50
2024-04-22T19:18:43.756Z,8.40
2024-04-22T19:21:10.611Z,8.30
2024-04-22T19:23:37.582Z,8.30
2024-04-22T19:26:08.902Z,8.30
2024-04-22T19:28:35.868Z,8.20
2024-04-22T19:31:08.813Z,8.10
2024-04-22T19:33:35.791Z,8.00
2024-04-22T19:36:02.583Z,8.00
2024-04-22T19:38:29.419Z,8.00
2024-04-22T19:40:56.328Z,7.90
2024-04-22T19:43:23.301Z,7.90
2024-04-22T19:45:50.112Z,7.90
2024-04-22T19:48:17.027Z,7.80
2024-04-22T19:50:45.183Z,7.80
2024-04-22T19:53:15.227Z,7.70
2024-04-22T19:55:43.765Z,7.70
2024-04-22T19:58:11.525Z,7.70
2024-04-22T20:00:38.375Z,7.60
2024-04-22T20:03:06.110Z,7.60
2024-04-22T20:05:33.273Z,7.60
2024-04-22T20:08:00.151Z,7.50
2024-04-22T20:10:27.131Z,7.50
2024-04-22T20:12:54.064Z,7.50
2024-04-22T20:15:41.236Z,7.40
2024-04-22T20:18:11.203Z,7.40
2024-04-22T20:20:39.287Z,7.40
2024-04-22T20:23:06.121Z,7.30
2024-04-22T20:25:33.059Z,7.30
2024-04-22T20:27:59.994Z,7.30
2024-04-22T20:30:26.879Z,7.30
2024-04-22T20:32:54.673Z,7.20
2024-04-22T20:35:21.834Z,7.20
2024-04-22T20:37:48.747Z,7.20
2024-04-22T20:40:15.709Z,7.20
2024-04-22T20:42:42.698Z,7.20
2024-04-22T20:45:09.574Z,7.10
2024-04-22T20:47:36.590Z,7.10
2024-04-22T20:50:03.590Z,7.10
2024-04-22T20:52:30.513Z,7.00
2024-04-22T20:54:57.456Z,7.00
2024-04-22T20:57:24.321Z,7.00
2024-04-22T20:59:51.118Z,7.00
2024-04-22T21:02:18.015Z,7.00
2024-04-22T21:04:46.488Z,6.90
2024-04-22T21:07:13.418Z,6.90
2024-04-22T21:09:40.236Z,6.90
2024-04-22T21:12:07.076Z,6.90
2024-04-22T21:14:34.159Z,6.80
2024-04-22T21:17:01.085Z,6.80
2024-04-22T21:19:28.048Z,6.80
2024-04-22T21:21:54.905Z,6.80
2024-04-22T21:24:21.736Z,6.80
2024-04-22T21:26:48.594Z,6.70
2024-04-22T21:29:19.088Z,6.70
2024-04-22T21:31:46.081Z,6.70
2024-04-22T21:34:15.428Z,6.70
2024-04-22T21:36:42.397Z,6.70
2024-04-22T21:39:09.260Z,6.70
2024-04-22T21:41:36.144Z,6.60
2024-04-22T21:44:02.973Z,6.60
2024-04-22T21:46:30.130Z,6.60
2024-04-22T21:48:57.305Z,6.60
2024-04-22T21:51:24.134Z,6.60
2024-04-22T21:53:50.912Z,6.50
2024-04-22T21:56:20.252Z,6.60
2024-04-22T21:59:06.635Z,6.50
2024-04-22T22:01:52.775Z,6.60
2024-04-22T22:04:38.512Z,6.50
2024-04-22T22:07:21.339Z,6.50
2024-04-22T22:09:51.088Z,6.50
2024-04-22T22:12:21.503Z,6.40
2024-04-22T22:14:50.594Z,6.40
2024-04-22T22:17:20.520Z,6.40
2024-04-22T22:19:49.071Z,6.30
2024-04-22T22:22:16.429Z,6.30
2024-04-22T22:24:43.624Z,6.30
2024-04-22T22:27:11.384Z,6.20
2024-04-22T22:29:38.734Z,6.20
2024-04-22T22:32:05.942Z,6.20
2024-04-22T22:34:33.024Z,6.20
2024-04-22T22:36:59.855Z,6.20
2024-04-22T22:39:26.661Z,6.10
2024-04-22T22:41:53.809Z,6.20
2024-04-22T22:44:21.282Z,6.10
2024-04-22T22:46:48.179Z,6.10
2024-04-22T22:49:15.056Z,6.10
2024-04-22T22:51:41.896Z,6.10
2024-04-22T22:54:08.702Z,6.00
2024-04-22T22:56:35.515Z,6.00
2024-04-22T22:59:02.398Z,6.00
2024-04-22T23:01:29.223Z,6.00
2024-04-22T23:03:56.155Z,6.00
2024-04-22T23:06:23.013Z,6.00
2024-04-22T23:08:49.852Z,5.90
2024-04-22T23:11:16.744Z,5.90
2024-04-22T23:13:43.824Z,5.90
2024-04-22T23:16:13.298Z,5.90
2024-04-22T23:18:40.204Z,5.90
2024-04-22T23:21:07.050Z,5.90
2024-04-22T23:23:33.841Z,5.90
2024-04-22T23:26:00.722Z,5.80
2024-04-22T23:28:27.574Z,5.80
2024-04-22T23:30:54.754Z,5.80
2024-04-22T23:33:21.640Z,5.80
2024-04-22T23:35:48.485Z,5.80
2024-04-22T23:38:15.303Z,5.70
2024-04-22T23:40:42.154Z,5.70
2024-04-22T23:43:08.955Z,5.70
2024-04-22T23:45:35.759Z,5.70
2024-04-22T23:48:02.668Z,5.70
2024-04-22T23:50:31.490Z,5.70
2024-04-22T23:52:58.320Z,5.60
2024-04-22T23:55:25.172Z,5.60
2024-04-22T23:57:51.999Z,5.60
